sensor_id;sensor_type;location;lat;lon;timestamp;temperature;humidity
16038;DHT22;8123;50.906;6.172;2023-02-03T00:01:20;9.10;99.90
16038;DHT22;8123;50.906;6.172;2023-02-03T00:03:47;9.10;99.90
16038;DHT22;8123;50.906;6.172;2023-02-03T00:06:13;9.10;99.90
16038;DHT22;8123;50.906;6.172;2023-02-03T00:08:39;9.10;99.90
16038;DHT22;8123;50.906;6.172;2023-02-03T00:11:05;9.10;99.90
16038;DHT22;8123;50.906;6.172;2023-02-03T00:13:31;9.10;99.90
16038;DHT22;8123;50.906;6.172;2023-02-03T00:15:58;9.10;99.90
16038;DHT22;8123;50.906;6.172;2023-02-03T00:18:26;9.20;99.90
16038;DHT22;8123;50.906;6.172;2023-02-03T00:20:52;9.40;99.90
16038;DHT22;8123;50.906;6.172;2023-02-03T00:23:17;9.10;99.90
16038;DHT22;8123;50.906;6.172;2023-02-03T00:25:43;9.10;99.90
16038;DHT22;8123;50.906;6.172;2023-02-03T00:28:08;9.20;99.90
16038;DHT22;8123;50.906;6.172;2023-02-03T00:30:34;9.30;99.90
16038;DHT22;8123;50.906;6.172;2023-02-03T00:33:01;9.10;99.90
16038;DHT22;8123;50.906;6.172;2023-02-03T00:35:27;9.00;99.90
16038;DHT22;8123;50.906;6.172;2023-02-03T00:37:56;9.00;99.90
16038;DHT22;8123;50.906;6.172;2023-02-03T00:40:23;9.00;99.90
16038;DHT22;8123;50.906;6.172;2023-02-03T00:42:49;9.00;99.90
16038;DHT22;8123;50.906;6.172;2023-02-03T00:45:16;9.00;99.90
16038;DHT22;8123;50.906;6.172;2023-02-03T00:47:41;9.00;99.90
16038;DHT22;8123;50.906;6.172;2023-02-03T00:50:08;9.00;99.90
16038;DHT22;8123;50.906;6.172;2023-02-03T00:52:34;9.00;99.90
16038;DHT22;8123;50.906;6.172;2023-02-03T00:54:59;9.20;99.90
16038;DHT22;8123;50.906;6.172;2023-02-03T00:57:25;9.00;99.90
16038;DHT22;8123;50.906;6.172;2023-02-03T00:59:50;9.20;99.90
16038;DHT22;8123;50.906;6.172;2023-02-03T01:02:16;9.00;99.90
16038;DHT22;8123;50.906;6.172;2023-02-03T01:04:42;9.00;99.90
16038;DHT22;8123;50.906;6.172;2023-02-03T01:07:08;9.00;99.90
16038;DHT22;8123;50.906;6.172;2023-02-03T01:09:35;9.00;99.90
16038;DHT22;8123;50.906;6.172;2023-02-03T01:12:01;9.10;99.90
16038;DHT22;8123;50.906;6.172;2023-02-03T01:14:27;9.00;99.90
16038;DHT22;8123;50.906;6.172;2023-02-03T01:16:53;9.00;99.90
16038;DHT22;8123;50.906;6.172;2023-02-03T01:19:19;9.00;99.90
16038;DHT22;8123;50.906;6.172;2023-02-03T01:21:45;9.00;99.90
16038;DHT22;8123;50.906;6.172;2023-02-03T01:24:11;9.10;99.90
16038;DHT22;8123;50.906;6.172;2023-02-03T01:26:36;9.10;99.90
16038;DHT22;8123;50.906;6.172;2023-02-03T01:29:02;9.10;99.90
16038;DHT22;8123;50.906;6.172;2023-02-03T01:31:31;9.10;99.90
16038;DHT22;8123;50.906;6.172;2023-02-03T01:33:59;9.10;99.90
16038;DHT22;8123;50.906;6.172;2023-02-03T01:36:27;9.10;99.90
16038;DHT22;8123;50.906;6.172;2023-02-03T01:38:53;9.10;99.90
16038;DHT22;8123;50.906;6.172;2023-02-03T01:41:21;9.10;99.90
16038;DHT22;8123;50.906;6.172;2023-02-03T01:43:50;9.10;99.90
16038;DHT22;8123;50.906;6.172;2023-02-03T01:48:56;9.10;99.90
16038;DHT22;8123;50.906;6.172;2023-02-03T01:51:23;9.10;99.90
16038;DHT22;8123;50.906;6.172;2023-02-03T01:53:50;9.20;99.90
16038;DHT22;8123;50.906;6.172;2023-02-03T01:56:16;9.00;99.90
16038;DHT22;8123;50.906;6.172;2023-02-03T01:58:42;9.00;99.90
16038;DHT22;8123;50.906;6.172;2023-02-03T02:01:09;9.20;99.90
16038;DHT22;8123;50.906;6.172;2023-02-03T02:03:56;9.00;99.90
16038;DHT22;8123;50.906;6.172;2023-02-03T02:06:23;9.10;99.90
16038;DHT22;8123;50.906;6.172;2023-02-03T02:08:51;9.10;99.90
16038;DHT22;8123;50.906;6.172;2023-02-03T02:11:17;9.10;99.90
16038;DHT22;8123;50.906;6.172;2023-02-03T02:13:46;9.00;99.90
16038;DHT22;8123;50.906;6.172;2023-02-03T02:16:26;9.10;99.90
16038;DHT22;8123;50.906;6.172;2023-02-03T02:27:34;9.10;99.90
16038;DHT22;8123;50.906;6.172;2023-02-03T02:41:04;9.10;99.90
16038;DHT22;8123;50.906;6.172;2023-02-03T02:43:41;9.10;99.90
16038;DHT22;8123;50.906;6.172;2023-02-03T02:46:16;9.10;99.90
16038;DHT22;8123;50.906;6.172;2023-02-03T02:48:47;9.40;99.90
16038;DHT22;8123;50.906;6.172;2023-02-03T02:51:17;9.10;99.90
16038;DHT22;8123;50.906;6.172;2023-02-03T02:53:56;9.20;99.90
16038;DHT22;8123;50.906;6.172;2023-02-03T02:56:24;9.10;99.90
16038;DHT22;8123;50.906;6.172;2023-02-03T02:58:52;9.10;99.90
16038;DHT22;8123;50.906;6.172;2023-02-03T03:01:19;9.20;99.90
16038;DHT22;8123;50.906;6.172;2023-02-03T03:03:45;9.20;99.90
16038;DHT22;8123;50.906;6.172;2023-02-03T03:06:24;9.10;99.90
16038;DHT22;8123;50.906;6.172;2023-02-03T03:09:11;9.10;99.90
16038;DHT22;8123;50.906;6.172;2023-02-03T03:11:46;9.20;99.90
16038;DHT22;8123;50.906;6.172;2023-02-03T03:14:15;9.10;99.90
16038;DHT22;8123;50.906;6.172;2023-02-03T03:16:47;9.10;99.90
16038;DHT22;8123;50.906;6.172;2023-02-03T03:19:18;9.10;99.90
16038;DHT22;8123;50.906;6.172;2023-02-03T03:21:52;9.30;99.90
16038;DHT22;8123;50.906;6.172;2023-02-03T03:24:30;9.10;99.90
16038;DHT22;8123;50.906;6.172;2023-02-03T03:27:07;9.10;99.90
16038;DHT22;8123;50.906;6.172;2023-02-03T03:32:04;9.30;99.90
16038;DHT22;8123;50.906;6.172;2023-02-03T03:34:31;9.10;99.90
16038;DHT22;8123;50.906;6.172;2023-02-03T03:37:18;9.10;99.90
16038;DHT22;8123;50.906;6.172;2023-02-03T03:47:35;9.40;99.90
16038;DHT22;8123;50.906;6.172;2023-02-03T03:50:06;9.10;99.90
16038;DHT22;8123;50.906;6.172;2023-02-03T03:52:35;9.20;99.90
16038;DHT22;8123;50.906;6.172;2023-02-03T03:55:05;9.10;99.90
16038;DHT22;8123;50.906;6.172;2023-02-03T03:57:45;9.10;99.90
16038;DHT22;8123;50.906;6.172;2023-02-03T04:00:16;9.10;99.90
16038;DHT22;8123;50.906;6.172;2023-02-03T04:02:44;9.10;99.90
16038;DHT22;8123;50.906;6.172;2023-02-03T04:05:11;9.10;99.90
16038;DHT22;8123;50.906;6.172;2023-02-03T04:07:43;9.20;99.90
16038;DHT22;8123;50.906;6.172;2023-02-03T04:10:30;9.10;99.90
16038;DHT22;8123;50.906;6.172;2023-02-03T04:12:56;9.10;99.90
16038;DHT22;8123;50.906;6.172;2023-02-03T04:15:22;9.10;99.90
16038;DHT22;8123;50.906;6.172;2023-02-03T04:17:48;9.10;99.90
16038;DHT22;8123;50.906;6.172;2023-02-03T04:20:14;9.10;99.90
16038;DHT22;8123;50.906;6.172;2023-02-03T04:22:40;9.10;99.90
16038;DHT22;8123;50.906;6.172;2023-02-03T04:25:06;9.10;99.90
16038;DHT22;8123;50.906;6.172;2023-02-03T04:27:33;9.10;99.90
16038;DHT22;8123;50.906;6.172;2023-02-03T04:29:59;9.10;99.90
16038;DHT22;8123;50.906;6.172;2023-02-03T04:32:25;9.10;99.90
16038;DHT22;8123;50.906;6.172;2023-02-03T04:34:50;9.10;99.90
16038;DHT22;8123;50.906;6.172;2023-02-03T04:37:16;9.10;99.90
16038;DHT22;8123;50.906;6.172;2023-02-03T04:39:41;9.30;99.90
16038;DHT22;8123;50.906;6.172;2023-02-03T04:42:07;9.30;99.90
16038;DHT22;8123;50.906;6.172;2023-02-03T04:44:33;9.20;99.90
16038;DHT22;8123;50.906;6.172;2023-02-03T04:46:58;9.00;99.90
16038;DHT22;8123;50.906;6.172;2023-02-03T04:49:24;9.00;99.90
16038;DHT22;8123;50.906;6.172;2023-02-03T04:51:50;9.10;99.90
16038;DHT22;8123;50.906;6.172;2023-02-03T04:54:15;9.00;99.90
16038;DHT22;8123;50.906;6.172;2023-02-03T04:56:41;9.10;99.90
16038;DHT22;8123;50.906;6.172;2023-02-03T04:59:07;9.00;99.90
16038;DHT22;8123;50.906;6.172;2023-02-03T05:01:33;9.10;99.90
16038;DHT22;8123;50.906;6.172;2023-02-03T05:03:59;9.00;99.90
16038;DHT22;8123;50.906;6.172;2023-02-03T05:06:26;9.00;99.90
16038;DHT22;8123;50.906;6.172;2023-02-03T05:08:53;9.10;99.90
16038;DHT22;8123;50.906;6.172;2023-02-03T05:11:20;9.00;99.90
16038;DHT22;8123;50.906;6.172;2023-02-03T05:13:47;9.00;99.90
16038;DHT22;8123;50.906;6.172;2023-02-03T05:16:12;9.20;99.90
16038;DHT22;8123;50.906;6.172;2023-02-03T05:18:38;9.10;99.90
16038;DHT22;8123;50.906;6.172;2023-02-03T05:21:05;9.10;99.90
16038;DHT22;8123;50.906;6.172;2023-02-03T05:23:31;9.00;99.90
16038;DHT22;8123;50.906;6.172;2023-02-03T05:25:56;9.10;99.90
16038;DHT22;8123;50.906;6.172;2023-02-03T05:28:22;9.10;99.90
16038;DHT22;8123;50.906;6.172;2023-02-03T05:30:48;9.30;99.90
16038;DHT22;8123;50.906;6.172;2023-02-03T05:33:13;9.00;99.90
16038;DHT22;8123;50.906;6.172;2023-02-03T05:35:39;9.20;99.90
16038;DHT22;8123;50.906;6.172;2023-02-03T05:38:05;9.10;99.90
16038;DHT22;8123;50.906;6.172;2023-02-03T05:40:30;9.10;99.90
16038;DHT22;8123;50.906;6.172;2023-02-03T05:43:15;9.40;99.90
16038;DHT22;8123;50.906;6.172;2023-02-03T05:45:41;9.40;99.90
16038;DHT22;8123;50.906;6.172;2023-02-03T05:48:06;9.20;99.90
16038;DHT22;8123;50.906;6.172;2023-02-03T05:50:32;9.10;99.90
16038;DHT22;8123;50.906;6.172;2023-02-03T05:52:59;9.00;99.90
16038;DHT22;8123;50.906;6.172;2023-02-03T05:55:27;9.10;99.90
16038;DHT22;8123;50.906;6.172;2023-02-03T05:57:53;9.10;99.90
16038;DHT22;8123;50.906;6.172;2023-02-03T06:00:20;9.10;99.90
16038;DHT22;8123;50.906;6.172;2023-02-03T06:03:08;9.10;99.90
16038;DHT22;8123;50.906;6.172;2023-02-03T06:05:34;9.10;99.90
16038;DHT22;8123;50.906;6.172;2023-02-03T06:08:00;9.20;99.90
16038;DHT22;8123;50.906;6.172;2023-02-03T06:10:26;9.10;99.90
16038;DHT22;8123;50.906;6.172;2023-02-03T06:12:52;9.10;99.90
16038;DHT22;8123;50.906;6.172;2023-02-03T06:15:18;9.10;99.90
16038;DHT22;8123;50.906;6.172;2023-02-03T06:17:46;9.10;99.90
16038;DHT22;8123;50.906;6.172;2023-02-03T06:20:14;9.10;99.90
16038;DHT22;8123;50.906;6.172;2023-02-03T06:22:40;9.00;99.90
16038;DHT22;8123;50.906;6.172;2023-02-03T06:25:05;9.10;99.90
16038;DHT22;8123;50.906;6.172;2023-02-03T06:27:31;9.00;99.90
16038;DHT22;8123;50.906;6.172;2023-02-03T06:29:57;9.10;99.90
16038;DHT22;8123;50.906;6.172;2023-02-03T06:32:22;9.00;99.90
16038;DHT22;8123;50.906;6.172;2023-02-03T06:34:48;9.00;99.90
16038;DHT22;8123;50.906;6.172;2023-02-03T06:37:14;9.00;99.90
16038;DHT22;8123;50.906;6.172;2023-02-03T06:39:40;9.30;99.90
16038;DHT22;8123;50.906;6.172;2023-02-03T06:42:06;9.10;99.90
16038;DHT22;8123;50.906;6.172;2023-02-03T06:44:32;9.00;99.90
16038;DHT22;8123;50.906;6.172;2023-02-03T06:46:58;9.10;99.90
16038;DHT22;8123;50.906;6.172;2023-02-03T06:49:24;9.00;99.90
16038;DHT22;8123;50.906;6.172;2023-02-03T06:51:50;9.20;99.90
16038;DHT22;8123;50.906;6.172;2023-02-03T06:54:17;9.10;99.90
16038;DHT22;8123;50.906;6.172;2023-02-03T06:56:42;9.10;99.90
16038;DHT22;8123;50.906;6.172;2023-02-03T06:59:08;9.10;99.90
16038;DHT22;8123;50.906;6.172;2023-02-03T07:01:35;9.20;99.90
16038;DHT22;8123;50.906;6.172;2023-02-03T07:04:00;9.10;99.90
16038;DHT22;8123;50.906;6.172;2023-02-03T07:06:27;9.00;99.90
16038;DHT22;8123;50.906;6.172;2023-02-03T07:08:55;9.10;99.90
16038;DHT22;8123;50.906;6.172;2023-02-03T07:11:21;9.10;99.90
16038;DHT22;8123;50.906;6.172;2023-02-03T07:13:47;9.10;99.90
16038;DHT22;8123;50.906;6.172;2023-02-03T07:16:13;9.10;99.90
16038;DHT22;8123;50.906;6.172;2023-02-03T07:18:38;9.30;99.90
16038;DHT22;8123;50.906;6.172;2023-02-03T07:21:05;9.40;99.90
16038;DHT22;8123;50.906;6.172;2023-02-03T07:23:31;9.10;99.90
16038;DHT22;8123;50.906;6.172;2023-02-03T07:26:04;9.10;99.90
16038;DHT22;8123;50.906;6.172;2023-02-03T07:28:33;9.20;99.90
16038;DHT22;8123;50.906;6.172;2023-02-03T07:30:59;9.20;99.90
16038;DHT22;8123;50.906;6.172;2023-02-03T07:33:26;9.20;99.90
16038;DHT22;8123;50.906;6.172;2023-02-03T07:35:56;9.40;99.90
16038;DHT22;8123;50.906;6.172;2023-02-03T07:38:23;9.20;99.90
16038;DHT22;8123;50.906;6.172;2023-02-03T07:40:49;9.20;99.90
16038;DHT22;8123;50.906;6.172;2023-02-03T07:43:14;9.40;99.90
16038;DHT22;8123;50.906;6.172;2023-02-03T07:45:40;9.30;99.90
16038;DHT22;8123;50.906;6.172;2023-02-03T07:48:06;9.20;99.90
16038;DHT22;8123;50.906;6.172;2023-02-03T07:50:32;9.40;99.90
16038;DHT22;8123;50.906;6.172;2023-02-03T07:52:58;9.40;99.90
16038;DHT22;8123;50.906;6.172;2023-02-03T07:55:24;9.30;99.90
16038;DHT22;8123;50.906;6.172;2023-02-03T07:57:52;9.40;99.90
16038;DHT22;8123;50.906;6.172;2023-02-03T08:00:19;9.40;99.90
16038;DHT22;8123;50.906;6.172;2023-02-03T08:02:45;9.30;99.90
16038;DHT22;8123;50.906;6.172;2023-02-03T08:05:12;9.30;99.90
16038;DHT22;8123;50.906;6.172;2023-02-03T08:07:38;9.30;99.90
16038;DHT22;8123;50.906;6.172;2023-02-03T08:10:05;9.50;99.90
16038;DHT22;8123;50.906;6.172;2023-02-03T08:12:31;9.30;99.90
16038;DHT22;8123;50.906;6.172;2023-02-03T08:14:57;9.40;99.90
16038;DHT22;8123;50.906;6.172;2023-02-03T08:17:23;9.40;99.90
16038;DHT22;8123;50.906;6.172;2023-02-03T08:19:49;9.40;99.90
16038;DHT22;8123;50.906;6.172;2023-02-03T08:22:14;9.40;99.90
16038;DHT22;8123;50.906;6.172;2023-02-03T08:24:45;9.30;99.90
16038;DHT22;8123;50.906;6.172;2023-02-03T08:27:15;9.60;99.90
16038;DHT22;8123;50.906;6.172;2023-02-03T08:29:42;9.30;99.90
16038;DHT22;8123;50.906;6.172;2023-02-03T08:32:12;9.50;99.90
16038;DHT22;8123;50.906;6.172;2023-02-03T08:34:39;9.30;99.90
16038;DHT22;8123;50.906;6.172;2023-02-03T08:37:05;9.30;99.90
16038;DHT22;8123;50.906;6.172;2023-02-03T08:39:31;9.70;99.90
16038;DHT22;8123;50.906;6.172;2023-02-03T08:41:58;9.40;99.90
16038;DHT22;8123;50.906;6.172;2023-02-03T08:44:24;9.40;99.90
16038;DHT22;8123;50.906;6.172;2023-02-03T08:46:50;9.40;99.90
16038;DHT22;8123;50.906;6.172;2023-02-03T08:49:17;9.40;99.90
16038;DHT22;8123;50.906;6.172;2023-02-03T08:51:47;9.40;99.90
16038;DHT22;8123;50.906;6.172;2023-02-03T08:54:13;9.40;99.90
16038;DHT22;8123;50.906;6.172;2023-02-03T08:56:39;9.40;99.90
16038;DHT22;8123;50.906;6.172;2023-02-03T08:59:05;9.40;99.90
16038;DHT22;8123;50.906;6.172;2023-02-03T09:01:31;9.50;99.90
16038;DHT22;8123;50.906;6.172;2023-02-03T09:03:56;9.40;99.90
16038;DHT22;8123;50.906;6.172;2023-02-03T09:06:23;9.40;99.90
16038;DHT22;8123;50.906;6.172;2023-02-03T09:08:49;9.50;99.90
16038;DHT22;8123;50.906;6.172;2023-02-03T09:11:17;9.40;99.90
16038;DHT22;8123;50.906;6.172;2023-02-03T09:13:43;9.40;99.90
16038;DHT22;8123;50.906;6.172;2023-02-03T09:16:14;9.40;99.90
16038;DHT22;8123;50.906;6.172;2023-02-03T09:18:46;9.40;99.90
16038;DHT22;8123;50.906;6.172;2023-02-03T09:21:13;9.30;99.90
16038;DHT22;8123;50.906;6.172;2023-02-03T09:23:41;9.30;99.90
16038;DHT22;8123;50.906;6.172;2023-02-03T09:26:09;9.30;99.90
16038;DHT22;8123;50.906;6.172;2023-02-03T09:28:36;9.60;99.90
16038;DHT22;8123;50.906;6.172;2023-02-03T09:31:07;9.40;99.90
16038;DHT22;8123;50.906;6.172;2023-02-03T09:33:33;9.30;99.90
16038;DHT22;8123;50.906;6.172;2023-02-03T09:35:59;9.30;99.90
16038;DHT22;8123;50.906;6.172;2023-02-03T09:38:25;9.30;99.90
16038;DHT22;8123;50.906;6.172;2023-02-03T09:41:00;9.60;99.90
16038;DHT22;8123;50.906;6.172;2023-02-03T09:44:05;9.20;99.90
16038;DHT22;8123;50.906;6.172;2023-02-03T09:46:48;9.20;99.90
16038;DHT22;8123;50.906;6.172;2023-02-03T09:51:58;9.20;99.90
16038;DHT22;8123;50.906;6.172;2023-02-03T09:57:00;9.20;99.90
16038;DHT22;8123;50.906;6.172;2023-02-03T09:59:28;9.20;99.90
16038;DHT22;8123;50.906;6.172;2023-02-03T10:10:16;9.00;99.90
16038;DHT22;8123;50.906;6.172;2023-02-03T10:18:25;8.90;99.90
16038;DHT22;8123;50.906;6.172;2023-02-03T10:20:56;8.90;99.90
16038;DHT22;8123;50.906;6.172;2023-02-03T10:23:29;9.00;99.90
16038;DHT22;8123;50.906;6.172;2023-02-03T10:25:59;8.80;99.90
16038;DHT22;8123;50.906;6.172;2023-02-03T10:28:47;8.80;99.90
16038;DHT22;8123;50.906;6.172;2023-02-03T10:31:24;8.80;99.90
16038;DHT22;8123;50.906;6.172;2023-02-03T10:33:59;8.80;99.90
16038;DHT22;8123;50.906;6.172;2023-02-03T10:39:47;8.80;99.90
16038;DHT22;8123;50.906;6.172;2023-02-03T10:42:14;9.10;99.90
16038;DHT22;8123;50.906;6.172;2023-02-03T10:45:09;9.10;99.90
16038;DHT22;8123;50.906;6.172;2023-02-03T10:47:40;8.80;99.90
16038;DHT22;8123;50.906;6.172;2023-02-03T10:50:19;8.80;99.90
16038;DHT22;8123;50.906;6.172;2023-02-03T10:52:45;8.80;99.90
16038;DHT22;8123;50.906;6.172;2023-02-03T10:57:47;9.10;99.90
16038;DHT22;8123;50.906;6.172;2023-02-03T11:02:42;8.90;99.90
16038;DHT22;8123;50.906;6.172;2023-02-03T11:05:19;8.80;99.90
16038;DHT22;8123;50.906;6.172;2023-02-03T11:07:46;8.90;99.90
16038;DHT22;8123;50.906;6.172;2023-02-03T11:13:22;9.00;99.90
16038;DHT22;8123;50.906;6.172;2023-02-03T11:16:01;9.00;99.90
16038;DHT22;8123;50.906;6.172;2023-02-03T11:20:57;9.00;99.90
16038;DHT22;8123;50.906;6.172;2023-02-03T11:27:12;9.00;99.90
16038;DHT22;8123;50.906;6.172;2023-02-03T11:29:44;9.00;99.90
16038;DHT22;8123;50.906;6.172;2023-02-03T11:32:34;9.10;99.90
16038;DHT22;8123;50.906;6.172;2023-02-03T11:35:17;9.00;99.90
16038;DHT22;8123;50.906;6.172;2023-02-03T11:37:49;9.00;99.90
16038;DHT22;8123;50.906;6.172;2023-02-03T11:42:44;9.40;99.90
16038;DHT22;8123;50.906;6.172;2023-02-03T11:50:57;9.50;99.90
16038;DHT22;8123;50.906;6.172;2023-02-03T11:53:35;9.20;99.90
16038;DHT22;8123;50.906;6.172;2023-02-03T12:29:15;9.30;99.90
16038;DHT22;8123;50.906;6.172;2023-02-03T12:32:13;9.50;99.90
16038;DHT22;8123;50.906;6.172;2023-02-03T12:35:05;9.30;99.90
16038;DHT22;8123;50.906;6.172;2023-02-03T12:37:45;9.30;99.90
16038;DHT22;8123;50.906;6.172;2023-02-03T12:40:32;9.30;99.90
16038;DHT22;8123;50.906;6.172;2023-02-03T12:43:25;9.30;99.90
16038;DHT22;8123;50.906;6.172;2023-02-03T12:46:00;9.30;99.90
16038;DHT22;8123;50.906;6.172;2023-02-03T12:48:43;9.30;99.90
16038;DHT22;8123;50.906;6.172;2023-02-03T12:51:15;9.30;99.90
16038;DHT22;8123;50.906;6.172;2023-02-03T12:53:49;9.30;99.90
16038;DHT22;8123;50.906;6.172;2023-02-03T12:56:25;9.60;99.90
16038;DHT22;8123;50.906;6.172;2023-02-03T12:58:56;9.40;99.90
16038;DHT22;8123;50.906;6.172;2023-02-03T13:01:34;9.60;99.90
16038;DHT22;8123;50.906;6.172;2023-02-03T13:09:40;9.30;99.90
16038;DHT22;8123;50.906;6.172;2023-02-03T13:14:56;9.30;99.90
16038;DHT22;8123;50.906;6.172;2023-02-03T13:17:30;9.30;99.90
16038;DHT22;8123;50.906;6.172;2023-02-03T13:20:04;9.40;99.90
16038;DHT22;8123;50.906;6.172;2023-02-03T13:22:31;9.40;99.90
16038;DHT22;8123;50.906;6.172;2023-02-03T13:25:24;9.40;99.90
16038;DHT22;8123;50.906;6.172;2023-02-03T13:37:04;9.40;99.90
16038;DHT22;8123;50.906;6.172;2023-02-03T13:44:04;9.30;99.90
16038;DHT22;8123;50.906;6.172;2023-02-03T13:46:34;9.40;99.90
16038;DHT22;8123;50.906;6.172;2023-02-03T13:49:02;9.50;99.90
16038;DHT22;8123;50.906;6.172;2023-02-03T13:51:43;9.30;99.90
16038;DHT22;8123;50.906;6.172;2023-02-03T13:54:16;9.30;99.90
16038;DHT22;8123;50.906;6.172;2023-02-03T13:56:53;9.30;99.90
16038;DHT22;8123;50.906;6.172;2023-02-03T13:59:42;9.20;99.90
16038;DHT22;8123;50.906;6.172;2023-02-03T14:07:36;9.30;99.90
16038;DHT22;8123;50.906;6.172;2023-02-03T14:17:58;9.30;99.90
16038;DHT22;8123;50.906;6.172;2023-02-03T14:25:36;9.30;99.90
16038;DHT22;8123;50.906;6.172;2023-02-03T14:28:16;9.20;99.90
16038;DHT22;8123;50.906;6.172;2023-02-03T14:31:07;9.30;99.90
16038;DHT22;8123;50.906;6.172;2023-02-03T14:38:53;9.40;99.90
16038;DHT22;8123;50.906;6.172;2023-02-03T14:41:44;9.30;99.90
16038;DHT22;8123;50.906;6.172;2023-02-03T14:49:50;9.30;99.90
16038;DHT22;8123;50.906;6.172;2023-02-03T14:57:36;9.30;99.90
16038;DHT22;8123;50.906;6.172;2023-02-03T15:00:30;9.30;99.90
16038;DHT22;8123;50.906;6.172;2023-02-03T15:05:40;9.60;99.90
16038;DHT22;8123;50.906;6.172;2023-02-03T15:08:36;9.30;99.90
16038;DHT22;8123;50.906;6.172;2023-02-03T15:11:32;9.30;99.90
16038;DHT22;8123;50.906;6.172;2023-02-03T15:16:47;9.40;99.90
16038;DHT22;8123;50.906;6.172;2023-02-03T15:19:19;9.50;99.90
16038;DHT22;8123;50.906;6.172;2023-02-03T15:21:47;9.70;99.90
16038;DHT22;8123;50.906;6.172;2023-02-03T15:24:17;9.80;99.90
16038;DHT22;8123;50.906;6.172;2023-02-03T15:27:04;9.40;99.90
16038;DHT22;8123;50.906;6.172;2023-02-03T15:29:31;9.60;99.90
16038;DHT22;8123;50.906;6.172;2023-02-03T15:32:11;9.70;99.90
16038;DHT22;8123;50.906;6.172;2023-02-03T15:34:43;9.40;99.90
16038;DHT22;8123;50.906;6.172;2023-02-03T15:37:37;9.50;99.90
16038;DHT22;8123;50.906;6.172;2023-02-03T15:40:16;9.50;99.90
16038;DHT22;8123;50.906;6.172;2023-02-03T15:42:57;9.50;99.90
16038;DHT22;8123;50.906;6.172;2023-02-03T15:45:38;9.50;99.90
16038;DHT22;8123;50.906;6.172;2023-02-03T15:48:18;9.50;99.90
16038;DHT22;8123;50.906;6.172;2023-02-03T15:50:51;9.60;99.90
16038;DHT22;8123;50.906;6.172;2023-02-03T15:53:23;9.90;99.90
16038;DHT22;8123;50.906;6.172;2023-02-03T15:55:54;9.50;99.90
16038;DHT22;8123;50.906;6.172;2023-02-03T15:58:26;9.80;99.90
16038;DHT22;8123;50.906;6.172;2023-02-03T16:01:04;9.90;99.90
16038;DHT22;8123;50.906;6.172;2023-02-03T16:03:44;9.50;99.90
16038;DHT22;8123;50.906;6.172;2023-02-03T16:06:15;9.50;99.90
16038;DHT22;8123;50.906;6.172;2023-02-03T16:08:44;9.50;99.90
16038;DHT22;8123;50.906;6.172;2023-02-03T16:11:33;9.50;99.90
16038;DHT22;8123;50.906;6.172;2023-02-03T16:14:02;9.50;99.90
16038;DHT22;8123;50.906;6.172;2023-02-03T16:16:48;9.60;99.90
16038;DHT22;8123;50.906;6.172;2023-02-03T16:19:22;9.80;99.90
16038;DHT22;8123;50.906;6.172;2023-02-03T16:29:52;9.50;99.90
16038;DHT22;8123;50.906;6.172;2023-02-03T16:32:37;9.60;99.90
16038;DHT22;8123;50.906;6.172;2023-02-03T16:35:22;9.80;99.90
16038;DHT22;8123;50.906;6.172;2023-02-03T16:38:17;9.80;99.90
16038;DHT22;8123;50.906;6.172;2023-02-03T16:41:02;9.60;99.90
16038;DHT22;8123;50.906;6.172;2023-02-03T16:43:47;9.60;99.90
16038;DHT22;8123;50.906;6.172;2023-02-03T16:46:31;9.60;99.90
16038;DHT22;8123;50.906;6.172;2023-02-03T16:49:15;9.60;99.90
16038;DHT22;8123;50.906;6.172;2023-02-03T16:51:59;9.70;99.90
16038;DHT22;8123;50.906;6.172;2023-02-03T16:54:26;9.90;99.90
16038;DHT22;8123;50.906;6.172;2023-02-03T16:56:52;9.60;99.90
16038;DHT22;8123;50.906;6.172;2023-02-03T16:59:18;9.70;99.90
16038;DHT22;8123;50.906;6.172;2023-02-03T17:01:43;9.70;99.90
16038;DHT22;8123;50.906;6.172;2023-02-03T17:04:10;9.80;99.90
16038;DHT22;8123;50.906;6.172;2023-02-03T17:06:40;9.80;99.90
16038;DHT22;8123;50.906;6.172;2023-02-03T17:09:06;10.20;99.90
16038;DHT22;8123;50.906;6.172;2023-02-03T17:11:32;9.80;99.90
16038;DHT22;8123;50.906;6.172;2023-02-03T17:13:57;9.80;99.90
16038;DHT22;8123;50.906;6.172;2023-02-03T17:16:25;10.10;99.90
16038;DHT22;8123;50.906;6.172;2023-02-03T17:18:51;9.90;99.90
16038;DHT22;8123;50.906;6.172;2023-02-03T17:21:20;9.90;99.90
16038;DHT22;8123;50.906;6.172;2023-02-03T17:23:47;9.90;99.90
16038;DHT22;8123;50.906;6.172;2023-02-03T17:26:12;10.00;99.90
16038;DHT22;8123;50.906;6.172;2023-02-03T17:28:39;10.00;99.90
16038;DHT22;8123;50.906;6.172;2023-02-03T17:31:06;10.00;99.90
16038;DHT22;8123;50.906;6.172;2023-02-03T17:33:33;10.00;99.90
16038;DHT22;8123;50.906;6.172;2023-02-03T17:36:04;10.00;99.90
16038;DHT22;8123;50.906;6.172;2023-02-03T17:38:36;10.00;99.90
16038;DHT22;8123;50.906;6.172;2023-02-03T17:41:11;10.00;99.90
16038;DHT22;8123;50.906;6.172;2023-02-03T17:43:38;10.00;99.90
16038;DHT22;8123;50.906;6.172;2023-02-03T17:46:04;10.00;99.90
16038;DHT22;8123;50.906;6.172;2023-02-03T17:48:30;10.00;99.90
16038;DHT22;8123;50.906;6.172;2023-02-03T17:53:35;10.00;99.90
16038;DHT22;8123;50.906;6.172;2023-02-03T17:56:11;9.90;99.90
16038;DHT22;8123;50.906;6.172;2023-02-03T17:58:38;9.90;99.90
16038;DHT22;8123;50.906;6.172;2023-02-03T18:01:14;9.90;99.90
16038;DHT22;8123;50.906;6.172;2023-02-03T18:03:50;10.10;99.90
16038;DHT22;8123;50.906;6.172;2023-02-03T18:06:17;9.90;99.90
16038;DHT22;8123;50.906;6.172;2023-02-03T18:08:44;10.00;99.90
16038;DHT22;8123;50.906;6.172;2023-02-03T18:11:10;9.90;99.90
16038;DHT22;8123;50.906;6.172;2023-02-03T18:13:38;10.20;99.90
16038;DHT22;8123;50.906;6.172;2023-02-03T18:16:06;9.90;99.90
16038;DHT22;8123;50.906;6.172;2023-02-03T18:18:33;9.90;99.90
16038;DHT22;8123;50.906;6.172;2023-02-03T18:21:07;9.90;99.90
16038;DHT22;8123;50.906;6.172;2023-02-03T18:23:35;9.90;99.90
16038;DHT22;8123;50.906;6.172;2023-02-03T18:26:01;9.90;99.90
16038;DHT22;8123;50.906;6.172;2023-02-03T18:28:27;10.10;99.90
16038;DHT22;8123;50.906;6.172;2023-02-03T18:30:58;9.90;99.90
16038;DHT22;8123;50.906;6.172;2023-02-03T18:33:24;9.90;99.90
16038;DHT22;8123;50.906;6.172;2023-02-03T18:35:49;9.90;99.90
16038;DHT22;8123;50.906;6.172;2023-02-03T18:38:15;9.80;99.90
16038;DHT22;8123;50.906;6.172;2023-02-03T18:40:41;9.90;99.90
16038;DHT22;8123;50.906;6.172;2023-02-03T18:43:06;9.90;99.90
16038;DHT22;8123;50.906;6.172;2023-02-03T18:45:32;10.00;99.90
16038;DHT22;8123;50.906;6.172;2023-02-03T18:48:00;9.80;99.90
16038;DHT22;8123;50.906;6.172;2023-02-03T18:50:25;9.90;99.90
16038;DHT22;8123;50.906;6.172;2023-02-03T18:52:52;9.80;99.90
16038;DHT22;8123;50.906;6.172;2023-02-03T18:55:18;9.90;99.90
16038;DHT22;8123;50.906;6.172;2023-02-03T18:57:44;9.90;99.90
16038;DHT22;8123;50.906;6.172;2023-02-03T19:00:12;9.90;99.90
16038;DHT22;8123;50.906;6.172;2023-02-03T19:02:39;9.80;99.90
16038;DHT22;8123;50.906;6.172;2023-02-03T19:05:06;9.80;99.90
16038;DHT22;8123;50.906;6.172;2023-02-03T19:07:34;9.80;99.90
16038;DHT22;8123;50.906;6.172;2023-02-03T19:10:00;10.00;99.90
16038;DHT22;8123;50.906;6.172;2023-02-03T19:12:26;9.80;99.90
16038;DHT22;8123;50.906;6.172;2023-02-03T19:14:52;9.80;99.90
16038;DHT22;8123;50.906;6.172;2023-02-03T19:17:18;9.70;99.90
16038;DHT22;8123;50.906;6.172;2023-02-03T19:19:44;9.70;99.90
16038;DHT22;8123;50.906;6.172;2023-02-03T19:22:12;9.80;99.90